Time;durP1;ratioP1;P1;durP2;ratioP2;P2;SDS_P1;SDS_P2;PMS_P1;PMS_P2;Temp;Humidity;BMP_temperature;BMP_pressure;BME280_temperature;BME280_humidity;BME280_pressure;Samples;Min_cycle;Max_cycle;Signal;HPM_P1;HPM_P2
2023/03/23 00:01:00;;;;;;;13.80;4.30;;;12.50;99.90;;;;;;4995020;28;20086;-74
2023/03/23 00:03:28;;;;;;;11.23;4.55;;;12.50;99.90;;;;;;4996447;28;20022;-74
2023/03/23 00:05:59;;;;;;;10.10;4.15;;;12.50;99.90;;;;;;4995908;28;20019;-74
2023/03/23 00:08:26;;;;;;;10.45;3.90;;;12.40;99.90;;;;;;4994595;28;20048;-74
2023/03/23 00:10:56;;;;;;;7.40;3.60;;;12.40;99.90;;;;;;4995247;28;20030;-74
2023/03/23 00:13:25;;;;;;;11.43;3.72;;;12.40;99.90;;;;;;4991486;28;20608;-74
2023/03/23 00:15:54;;;;;;;9.52;4.30;;;12.50;99.90;;;;;;4976093;28;20015;-75
2023/03/23 00:18:21;;;;;;;9.05;3.70;;;12.50;99.90;;;;;;4981605;28;20050;-74
2023/03/23 00:20:50;;;;;;;5.65;3.20;;;12.50;99.90;;;;;;4996229;28;20026;-75
2023/03/23 00:23:18;;;;;;;7.28;3.10;;;12.50;99.90;;;;;;4995554;28;20067;-74
2023/03/23 00:25:48;;;;;;;7.28;3.33;;;12.50;99.90;;;;;;4994959;28;20019;-74
2023/03/23 00:28:15;;;;;;;7.28;3.20;;;12.50;99.90;;;;;;4995598;28;20060;-74
2023/03/23 00:30:44;;;;;;;13.55;3.80;;;12.50;99.90;;;;;;4995559;28;20029;-74
2023/03/23 00:33:12;;;;;;;7.35;3.00;;;12.50;99.90;;;;;;4993555;28;20045;-74
2023/03/23 00:35:39;;;;;;;10.60;3.38;;;12.50;99.90;;;;;;4988332;28;20079;-74
2023/03/23 00:38:05;;;;;;;7.43;3.15;;;12.50;99.90;;;;;;4992046;28;20118;-74
2023/03/23 00:40:35;;;;;;;8.98;3.60;;;12.50;99.90;;;;;;4988787;28;20517;-74
2023/03/23 00:43:03;;;;;;;9.98;3.60;;;12.40;99.90;;;;;;4985255;28;20038;-74
2023/03/23 00:45:29;;;;;;;9.13;3.42;;;12.40;99.90;;;;;;4993686;28;20441;-74
2023/03/23 00:47:56;;;;;;;9.68;3.30;;;12.40;99.90;;;;;;4993476;28;20104;-74
2023/03/23 00:50:22;;;;;;;11.70;3.65;;;12.40;99.90;;;;;;4994024;28;20520;-75
2023/03/23 00:52:49;;;;;;;7.80;3.20;;;12.40;99.90;;;;;;4992636;28;20022;-75
2023/03/23 00:55:15;;;;;;;8.73;3.20;;;12.40;99.90;;;;;;4994604;28;20026;-75
2023/03/23 00:57:40;;;;;;;8.45;3.22;;;12.40;99.90;;;;;;4991860;28;20034;-75
2023/03/23 01:00:10;;;;;;;7.85;3.30;;;12.40;99.90;;;;;;4988924;28;20016;-73
2023/03/23 01:02:36;;;;;;;7.60;2.90;;;12.40;99.90;;;;;;4993636;28;20084;-73
2023/03/23 01:05:03;;;;;;;7.03;3.20;;;12.40;99.90;;;;;;4988025;28;20022;-74
2023/03/23 01:07:30;;;;;;;9.57;3.47;;;12.40;99.90;;;;;;4994726;28;20021;-75
2023/03/23 01:09:57;;;;;;;10.35;3.53;;;12.50;99.90;;;;;;4984905;28;20045;-74
2023/03/23 01:12:24;;;;;;;4.68;2.88;;;12.50;99.90;;;;;;4994194;28;20052;-74
2023/03/23 01:14:50;;;;;;;6.82;3.00;;;12.40;99.90;;;;;;4993606;28;20034;-74
2023/03/23 01:17:16;;;;;;;9.43;3.08;;;12.50;99.90;;;;;;4991355;28;20072;-74
2023/03/23 01:19:42;;;;;;;7.95;3.20;;;12.40;99.90;;;;;;4990068;28;20433;-74
2023/03/23 01:22:07;;;;;;;6.68;3.22;;;12.50;99.90;;;;;;4994361;28;20106;-74
2023/03/23 01:24:33;;;;;;;7.55;2.83;;;12.50;99.90;;;;;;4991198;28;20110;-74
2023/03/23 01:27:06;;;;;;;8.80;3.25;;;12.50;99.90;;;;;;4993566;28;20105;-74
2023/03/23 01:29:35;;;;;;;5.60;2.78;;;12.50;99.90;;;;;;4982864;28;20023;-74
2023/03/23 01:32:01;;;;;;;6.05;2.47;;;12.50;99.90;;;;;;4986649;28;20031;-75
2023/03/23 01:34:26;;;;;;;6.15;2.65;;;12.50;99.90;;;;;;4993027;28;20071;-75
2023/03/23 01:36:52;;;;;;;6.15;2.50;;;12.50;99.90;;;;;;4993499;28;20472;-75
2023/03/23 01:39:18;;;;;;;4.05;2.50;;;12.50;99.90;;;;;;4993703;28;20385;-75
2023/03/23 01:41:43;;;;;;;4.82;2.50;;;12.50;99.90;;;;;;4994308;28;20033;-75
2023/03/23 01:44:18;;;;;;;6.55;2.55;;;12.50;99.90;;;;;;5005165;28;20045;-75
2023/03/23 01:46:44;;;;;;;4.03;2.40;;;12.50;99.90;;;;;;4991769;28;20027;-75
2023/03/23 01:49:26;;;;;;;4.68;2.50;;;12.50;99.90;;;;;;4990149;28;20100;-75
2023/03/23 01:51:55;;;;;;;7.03;2.53;;;12.50;99.90;;;;;;4997375;28;20021;-75
2023/03/23 01:54:23;;;;;;;7.05;2.65;;;12.50;99.90;;;;;;4984720;28;20366;-75
2023/03/23 01:56:58;;;;;;;10.30;2.80;;;12.50;99.90;;;;;;4991654;28;20110;-75
2023/03/23 01:59:26;;;;;;;8.13;2.63;;;12.50;99.90;;;;;;4982880;28;20097;-75
2023/03/23 02:01:55;;;;;;;5.80;2.72;;;12.50;99.90;;;;;;4983565;28;20066;-74
2023/03/23 02:04:23;;;;;;;5.60;2.63;;;12.50;99.90;;;;;;4990115;28;20117;-74
2023/03/23 02:06:50;;;;;;;6.43;2.80;;;12.50;99.90;;;;;;4993848;28;20057;-75
2023/03/23 02:09:17;;;;;;;4.65;2.75;;;12.50;99.90;;;;;;4994487;28;20085;-75
2023/03/23 02:11:42;;;;;;;5.57;2.65;;;12.50;99.90;;;;;;4990723;28;20081;-75
2023/03/23 02:14:08;;;;;;;5.90;2.60;;;12.50;99.90;;;;;;4993939;28;20053;-75
2023/03/23 02:16:34;;;;;;;6.78;2.83;;;12.40;99.90;;;;;;5004035;28;20084;-75
2023/03/23 02:19:27;;;;;;;6.65;2.72;;;12.40;99.90;;;;;;4982355;28;20069;-75
2023/03/23 02:21:53;;;;;;;5.00;2.67;;;12.50;99.90;;;;;;4980901;28;20030;-75
2023/03/23 02:24:34;;;;;;;7.05;2.70;;;12.40;99.90;;;;;;4989189;28;20034;-75
2023/03/23 02:27:40;;;;;;;7.10;2.60;;;12.50;99.90;;;;;;4994374;28;20023;-75
2023/03/23 02:30:32;;;;;;;5.57;2.53;;;12.50;99.90;;;;;;4971560;28;20062;-75
2023/03/23 02:33:11;;;;;;;5.03;2.22;;;12.40;99.90;;;;;;4979108;28;20115;-74
2023/03/23 02:35:48;;;;;;;7.55;2.60;;;12.50;99.90;;;;;;4984427;28;20063;-75
2023/03/23 02:38:18;;;;;;;7.00;2.58;;;12.50;99.90;;;;;;4995970;28;20037;-75
2023/03/23 02:40:47;;;;;;;5.07;2.33;;;12.40;99.90;;;;;;4988471;28;20029;-75
2023/03/23 02:43:19;;;;;;;6.82;2.47;;;12.40;99.90;;;;;;5004323;28;20109;-75
2023/03/23 02:45:46;;;;;;;7.07;2.50;;;12.40;99.90;;;;;;4991660;28;20030;-74
2023/03/23 02:48:15;;;;;;;6.28;2.40;;;12.40;99.90;;;;;;4999576;28;20409;-75
2023/03/23 02:50:44;;;;;;;7.72;2.40;;;12.40;99.90;;;;;;5001416;28;20069;-75
2023/03/23 02:53:14;;;;;;;10.13;2.65;;;12.40;99.90;;;;;;4997525;28;20130;-75
2023/03/23 02:55:42;;;;;;;11.05;2.83;;;12.40;99.90;;;;;;4999130;28;20030;-75
2023/03/23 02:58:09;;;;;;;7.47;2.58;;;12.40;99.90;;;;;;4993738;28;20035;-75
2023/03/23 03:00:36;;;;;;;7.25;2.42;;;12.40;99.90;;;;;;4986474;28;20023;-75
2023/03/23 03:03:04;;;;;;;6.47;2.20;;;12.40;99.90;;;;;;4995645;28;20033;-75
2023/03/23 03:05:59;;;;;;;4.85;2.30;;;12.50;99.90;;;;;;4997064;28;20027;-75
2023/03/23 03:08:31;;;;;;;9.48;2.65;;;12.40;99.90;;;;;;4982098;28;20028;-75
2023/03/23 03:10:56;;;;;;;6.85;2.28;;;12.40;99.90;;;;;;4996473;28;20030;-75
2023/03/23 03:13:31;;;;;;;9.60;2.40;;;12.40;99.90;;;;;;4994193;28;20428;-75
2023/03/23 03:16:03;;;;;;;4.00;1.92;;;12.40;99.90;;;;;;4993421;28;20067;-75
2023/03/23 03:18:59;;;;;;;8.48;2.83;;;12.40;99.90;;;;;;4984794;28;20076;-76
2023/03/23 03:21:29;;;;;;;5.05;2.90;;;12.30;99.90;;;;;;4998405;28;20034;-77
2023/03/23 03:24:00;;;;;;;9.98;2.90;;;12.20;99.90;;;;;;4991380;28;20117;-76
2023/03/23 03:26:28;;;;;;;9.98;2.90;;;12.10;99.90;;;;;;4997250;28;20496;-76
2023/03/23 03:28:55;;;;;;;8.45;2.72;;;12.00;99.90;;;;;;4997334;28;20034;-76
2023/03/23 03:31:30;;;;;;;8.13;3.38;;;11.90;99.90;;;;;;4995756;28;20054;-76
2023/03/23 03:33:57;;;;;;;8.52;4.00;;;11.90;99.90;;;;;;5000835;28;20466;-76
2023/03/23 03:36:34;;;;;;;11.60;4.75;;;11.80;99.90;;;;;;4996145;28;20003;-76
2023/03/23 03:39:07;;;;;;;9.05;3.55;;;11.80;99.90;;;;;;4997233;28;20485;-76
2023/03/23 03:41:34;;;;;;;10.60;3.58;;;11.80;99.90;;;;;;4998461;28;20042;-76
2023/03/23 03:44:00;;;;;;;7.47;3.30;;;11.70;99.90;;;;;;4990735;28;20023;-77
2023/03/23 03:46:29;;;;;;;11.40;3.45;;;11.70;99.90;;;;;;4994416;28;20093;-78
2023/03/23 03:48:56;;;;;;;12.02;3.97;;;11.70;99.90;;;;;;4997812;28;20033;-78
2023/03/23 03:51:22;;;;;;;13.98;3.85;;;11.70;99.90;;;;;;4983418;28;20027;-78
2023/03/23 03:53:48;;;;;;;8.98;3.53;;;11.60;99.90;;;;;;4996838;28;20028;-77
2023/03/23 03:56:14;;;;;;;12.57;3.58;;;11.60;99.90;;;;;;4996391;28;20485;-77
2023/03/23 03:58:42;;;;;;;11.27;3.45;;;11.50;99.90;;;;;;4979764;28;20069;-76
2023/03/23 04:01:09;;;;;;;11.60;3.58;;;11.50;99.90;;;;;;4984681;28;20018;-76
2023/03/23 04:03:36;;;;;;;11.60;2.80;;;11.50;99.90;;;;;;4983008;28;20114;-76
2023/03/23 04:06:03;;;;;;;9.45;3.05;;;11.60;99.90;;;;;;4989757;28;20026;-75
2023/03/23 04:08:29;;;;;;;14.35;3.10;;;11.60;99.90;;;;;;5005545;28;20030;-75
2023/03/23 04:10:55;;;;;;;12.30;2.85;;;11.60;99.90;;;;;;4994625;28;20031;-75
2023/03/23 04:13:21;;;;;;;8.65;2.72;;;11.60;99.90;;;;;;4993633;28;20153;-75
2023/03/23 04:15:47;;;;;;;7.97;3.08;;;11.70;99.90;;;;;;4991972;28;20102;-75
2023/03/23 04:18:14;;;;;;;10.65;3.20;;;11.70;99.90;;;;;;4995683;28;20038;-75
2023/03/23 04:20:42;;;;;;;13.18;3.20;;;11.70;99.90;;;;;;4995931;28;20098;-75
2023/03/23 04:23:08;;;;;;;12.07;3.30;;;11.70;99.90;;;;;;4995210;28;20109;-75
2023/03/23 04:25:33;;;;;;;13.60;3.70;;;11.70;99.90;;;;;;4994695;28;20070;-75
2023/03/23 04:28:00;;;;;;;15.93;4.18;;;11.70;99.90;;;;;;4987320;28;20113;-74
2023/03/23 04:30:27;;;;;;;13.20;3.28;;;11.70;99.90;;;;;;4994232;28;20065;-74
2023/03/23 04:32:56;;;;;;;10.88;3.30;;;11.70;99.90;;;;;;4987637;28;20031;-75
2023/03/23 04:35:26;;;;;;;17.60;3.47;;;11.70;99.90;;;;;;4976392;28;20069;-74
2023/03/23 04:37:52;;;;;;;14.95;3.40;;;11.60;99.90;;;;;;4995459;28;20234;-74
2023/03/23 04:40:18;;;;;;;14.93;3.50;;;11.70;99.90;;;;;;4995920;28;20354;-74
2023/03/23 04:42:45;;;;;;;18.27;4.25;;;11.60;99.90;;;;;;4998033;28;20033;-74
2023/03/23 04:45:14;;;;;;;15.23;3.72;;;11.70;99.90;;;;;;5004554;28;20057;-75
2023/03/23 04:47:40;;;;;;;16.10;3.53;;;11.70;99.90;;;;;;4987275;28;20018;-75
2023/03/23 04:50:08;;;;;;;11.93;3.38;;;11.60;99.90;;;;;;4993570;28;20038;-75
2023/03/23 04:52:34;;;;;;;10.95;2.97;;;11.70;99.90;;;;;;4991897;28;20070;-75
2023/03/23 04:55:00;;;;;;;17.00;3.30;;;11.60;99.90;;;;;;4988435;28;20019;-75
2023/03/23 04:57:27;;;;;;;16.42;3.53;;;11.60;99.90;;;;;;4986247;28;20022;-76
2023/03/23 04:59:53;;;;;;;19.65;3.75;;;11.60;99.90;;;;;;4978282;28;20089;-75
2023/03/23 05:02:19;;;;;;;12.20;3.00;;;11.50;99.90;;;;;;4995275;28;20473;-74
2023/03/23 05:04:44;;;;;;;19.25;3.90;;;11.50;99.90;;;;;;4988865;28;20114;-74
2023/03/23 05:07:11;;;;;;;9.02;2.90;;;11.40;99.90;;;;;;4986326;28;20041;-74
2023/03/23 05:09:37;;;;;;;15.60;3.15;;;11.40;99.90;;;;;;4988734;28;20046;-75
2023/03/23 05:12:07;;;;;;;13.27;3.05;;;11.40;99.90;;;;;;4991237;28;20129;-75
2023/03/23 05:14:33;;;;;;;16.60;3.88;;;11.40;99.90;;;;;;4996382;28;20041;-75
2023/03/23 05:16:58;;;;;;;17.70;3.95;;;11.30;99.90;;;;;;4982885;28;20026;-75
2023/03/23 05:19:24;;;;;;;14.57;3.50;;;11.30;99.90;;;;;;4996131;28;20041;-75
2023/03/23 05:21:50;;;;;;;20.95;3.92;;;11.30;99.90;;;;;;4994181;28;20033;-75
2023/03/23 05:24:15;;;;;;;17.70;3.22;;;11.30;99.90;;;;;;4995096;28;20089;-75
2023/03/23 05:26:41;;;;;;;18.52;3.38;;;11.30;99.90;;;;;;4994747;28;20033;-75
2023/03/23 05:29:06;;;;;;;17.42;3.42;;;11.30;99.90;;;;;;4988883;28;20026;-75
2023/03/23 05:31:33;;;;;;;16.10;3.20;;;11.30;99.90;;;;;;4974072;28;20022;-75
2023/03/23 05:33:58;;;;;;;14.68;3.30;;;11.30;99.90;;;;;;4992585;28;20425;-75
2023/03/23 05:36:24;;;;;;;16.55;3.58;;;11.20;99.90;;;;;;4993002;28;20054;-75
2023/03/23 05:38:53;;;;;;;21.55;4.28;;;11.30;99.90;;;;;;4993799;28;20034;-75
2023/03/23 05:41:18;;;;;;;23.83;4.13;;;11.20;99.90;;;;;;4989121;28;20022;-75
2023/03/23 05:43:44;;;;;;;12.93;3.95;;;11.20;99.90;;;;;;4975790;28;20098;-75
2023/03/23 05:46:09;;;;;;;15.65;3.88;;;11.30;99.90;;;;;;4994078;28;20077;-75
2023/03/23 05:48:36;;;;;;;15.27;3.30;;;11.30;99.90;;;;;;4986911;28;20030;-76
2023/03/23 05:51:02;;;;;;;22.35;3.80;;;11.30;99.90;;;;;;4987784;28;20424;-75
2023/03/23 05:53:30;;;;;;;17.40;3.53;;;11.30;99.90;;;;;;4994188;28;20101;-75
2023/03/23 05:56:00;;;;;;;14.05;3.15;;;11.30;99.90;;;;;;4994752;28;20026;-76
2023/03/23 05:58:26;;;;;;;19.02;3.42;;;11.30;99.90;;;;;;4990631;28;20066;-75
2023/03/23 06:00:51;;;;;;;20.65;3.72;;;11.30;99.90;;;;;;4985266;28;20097;-75
2023/03/23 06:03:17;;;;;;;19.70;3.35;;;11.30;99.90;;;;;;4992142;28;20092;-75
2023/03/23 06:05:44;;;;;;;19.33;3.67;;;11.30;99.90;;;;;;4987516;28;20022;-75
2023/03/23 06:08:10;;;;;;;17.33;3.50;;;11.30;99.90;;;;;;4988433;28;20389;-75
2023/03/23 06:10:36;;;;;;;17.05;3.75;;;11.40;99.90;;;;;;4999622;28;20121;-75
2023/03/23 06:13:02;;;;;;;20.88;4.28;;;11.30;99.90;;;;;;4987789;28;20043;-75
2023/03/23 06:15:31;;;;;;;21.42;4.05;;;11.40;99.90;;;;;;4988519;28;20098;-75
2023/03/23 06:18:01;;;;;;;20.70;3.47;;;11.40;99.90;;;;;;4995647;28;20018;-75
2023/03/23 06:20:27;;;;;;;28.33;4.15;;;11.40;99.90;;;;;;5004325;28;20026;-75
2023/03/23 06:22:53;;;;;;;22.63;4.20;;;11.40;99.90;;;;;;5002457;28;20026;-75
2023/03/23 06:25:19;;;;;;;20.35;3.80;;;11.40;99.90;;;;;;5020817;28;20026;-75
2023/03/23 06:27:46;;;;;;;21.67;4.38;;;11.40;99.90;;;;;;4996348;28;20026;-75
2023/03/23 06:30:14;;;;;;;20.23;4.10;;;11.40;99.90;;;;;;4991123;28;20070;-75
2023/03/23 06:32:41;;;;;;;15.73;3.83;;;11.40;99.90;;;;;;4991451;28;20030;-75
2023/03/23 06:35:09;;;;;;;20.45;3.63;;;11.40;99.90;;;;;;5000696;28;20025;-74
2023/03/23 06:37:36;;;;;;;21.42;4.55;;;11.40;99.90;;;;;;4998310;28;20026;-75
2023/03/23 06:40:03;;;;;;;27.52;4.32;;;11.40;99.90;;;;;;4999462;28;20058;-75
2023/03/23 06:42:29;;;;;;;19.73;4.13;;;11.40;99.90;;;;;;4993123;28;20037;-75
2023/03/23 06:44:57;;;;;;;19.75;3.95;;;11.40;99.90;;;;;;4999851;28;20030;-75
2023/03/23 06:47:26;;;;;;;17.73;3.35;;;11.40;99.90;;;;;;5000416;28;20439;-75
2023/03/23 06:49:51;;;;;;;20.45;3.80;;;11.40;99.90;;;;;;4998019;28;20034;-75
2023/03/23 06:52:17;;;;;;;27.65;3.72;;;11.30;99.90;;;;;;4993337;28;20053;-75
2023/03/23 06:54:43;;;;;;;20.33;3.35;;;11.40;99.90;;;;;;4984594;28;20027;-74
2023/03/23 06:57:09;;;;;;;17.45;3.22;;;11.30;99.90;;;;;;4990354;28;20054;-74
2023/03/23 06:59:34;;;;;;;16.15;3.35;;;11.40;99.90;;;;;;4994741;28;20500;-74
2023/03/23 07:02:00;;;;;;;24.23;3.45;;;11.40;99.90;;;;;;4999157;28;20461;-74
2023/03/23 07:04:26;;;;;;;14.52;3.35;;;11.40;99.90;;;;;;4991432;28;20031;-75
2023/03/23 07:06:51;;;;;;;18.40;3.58;;;11.30;99.90;;;;;;4998436;28;20049;-75
2023/03/23 07:09:17;;;;;;;19.15;3.65;;;11.30;99.90;;;;;;5004630;28;20381;-74
2023/03/23 07:11:43;;;;;;;20.00;3.35;;;11.40;99.90;;;;;;4996802;28;20057;-75
2023/03/23 07:14:10;;;;;;;14.95;3.30;;;11.40;99.90;;;;;;4989221;28;20519;-74
2023/03/23 07:16:35;;;;;;;16.13;3.03;;;11.40;99.90;;;;;;4982468;28;20081;-74
2023/03/23 07:19:01;;;;;;;20.50;3.10;;;11.40;99.90;;;;;;5000449;28;20111;-75
2023/03/23 07:21:26;;;;;;;22.13;3.40;;;11.30;99.90;;;;;;4993600;28;20034;-74
2023/03/23 07:23:52;;;;;;;14.00;2.90;;;11.30;99.90;;;;;;4996763;28;20030;-74
2023/03/23 07:26:18;;;;;;;19.17;3.55;;;11.30;99.90;;;;;;5004212;28;20022;-74
2023/03/23 07:28:45;;;;;;;17.30;3.40;;;11.30;99.90;;;;;;4992034;28;20117;-74
2023/03/23 07:31:11;;;;;;;19.98;2.90;;;11.30;99.90;;;;;;4989799;28;20084;-74
2023/03/23 07:33:37;;;;;;;15.93;3.35;;;11.30;99.90;;;;;;4995820;28;20026;-74
2023/03/23 07:36:03;;;;;;;21.48;3.30;;;11.30;99.90;;;;;;4989266;28;20070;-74
2023/03/23 07:38:30;;;;;;;21.20;3.53;;;11.30;99.90;;;;;;4987432;28;20477;-74
2023/03/23 07:40:56;;;;;;;16.00;3.42;;;11.20;99.90;;;;;;4981862;28;20050;-74
2023/03/23 07:43:22;;;;;;;18.90;3.50;;;11.30;99.90;;;;;;4996855;28;20023;-74
2023/03/23 07:45:48;;;;;;;15.70;3.28;;;11.30;99.90;;;;;;4983339;28;20098;-74
2023/03/23 07:48:14;;;;;;;17.42;3.75;;;11.30;99.90;;;;;;4978853;28;20126;-74
2023/03/23 07:50:40;;;;;;;24.42;3.70;;;11.40;99.90;;;;;;4991817;28;20065;-74
2023/03/23 07:53:06;;;;;;;18.67;3.67;;;11.50;99.90;;;;;;4986436;28;20034;-74
2023/03/23 07:55:32;;;;;;;26.55;3.38;;;11.50;99.90;;;;;;4991667;28;20040;-74
2023/03/23 07:57:57;;;;;;;16.65;3.33;;;11.60;99.90;;;;;;4989489;28;20030;-74
2023/03/23 08:00:23;;;;;;;17.00;3.70;;;11.50;99.90;;;;;;4995760;28;20144;-74
2023/03/23 08:02:55;;;;;;;19.27;3.65;;;11.60;99.90;;;;;;4990691;28;20034;-74
2023/03/23 08:05:21;;;;;;;21.88;4.43;;;11.60;99.90;;;;;;4989628;28;20018;-74
2023/03/23 08:07:47;;;;;;;22.92;5.00;;;11.60;99.90;;;;;;4995172;28;20033;-74
2023/03/23 08:10:14;;;;;;;17.45;4.68;;;11.60;99.90;;;;;;4983973;28;20114;-74
2023/03/23 08:12:42;;;;;;;22.83;4.88;;;11.60;99.90;;;;;;5004497;28;20472;-74
2023/03/23 08:15:12;;;;;;;19.98;3.75;;;11.60;99.90;;;;;;4991884;28;20039;-74
2023/03/23 08:17:39;;;;;;;20.52;4.95;;;11.60;99.90;;;;;;4988918;28;20034;-74
2023/03/23 08:20:12;;;;;;;15.95;3.92;;;11.70;99.90;;;;;;4994468;28;20038;-74
2023/03/23 08:22:42;;;;;;;21.10;4.55;;;11.70;99.90;;;;;;4993262;28;20105;-74
2023/03/23 08:25:10;;;;;;;19.48;5.00;;;11.70;99.90;;;;;;4995322;28;20026;-74
2023/03/23 08:27:36;;;;;;;22.40;4.50;;;11.80;99.90;;;;;;5005181;28;20089;-74
2023/03/23 08:30:05;;;;;;;16.52;4.63;;;11.80;99.90;;;;;;4994588;28;20030;-74
2023/03/23 08:32:31;;;;;;;23.67;4.63;;;11.80;99.90;;;;;;4996223;28;20053;-74
2023/03/23 08:34:57;;;;;;;25.00;4.07;;;11.90;99.90;;;;;;5007402;28;20034;-74
2023/03/23 08:37:23;;;;;;;14.15;4.40;;;12.00;99.90;;;;;;4996701;28;20106;-74
2023/03/23 08:39:52;;;;;;;30.10;4.90;;;12.00;99.90;;;;;;5004743;28;20034;-74
2023/03/23 08:42:18;;;;;;;23.42;4.32;;;12.10;99.90;;;;;;4997421;28;20061;-74
2023/03/23 08:44:44;;;;;;;20.80;3.95;;;12.10;99.90;;;;;;4997129;28;20106;-74
2023/03/23 08:47:09;;;;;;;20.55;4.18;;;12.10;99.90;;;;;;4994106;28;20030;-74
2023/03/23 08:49:35;;;;;;;25.42;3.88;;;12.20;99.90;;;;;;4993851;28;20041;-74
2023/03/23 08:52:01;;;;;;;21.63;3.20;;;12.20;99.90;;;;;;4985984;28;20031;-74
2023/03/23 08:54:29;;;;;;;21.05;3.80;;;12.30;99.90;;;;;;4987753;28;20031;-74
2023/03/23 08:56:54;;;;;;;22.17;3.67;;;12.30;99.90;;;;;;4992241;28;20025;-74
2023/03/23 08:59:20;;;;;;;21.48;3.90;;;12.30;99.90;;;;;;5002099;28;20019;-74
2023/03/23 09:01:46;;;;;;;23.63;3.58;;;12.40;99.90;;;;;;4980474;28;20505;-74
2023/03/23 09:04:11;;;;;;;21.40;3.70;;;12.40;99.90;;;;;;4985334;28;20026;-74
2023/03/23 09:06:37;;;;;;;23.42;3.83;;;12.40;99.90;;;;;;4974975;28;20027;-74
2023/03/23 09:09:06;;;;;;;23.42;3.85;;;12.50;99.90;;;;;;4987436;28;20042;-74
2023/03/23 09:11:35;;;;;;;23.27;3.92;;;12.50;99.90;;;;;;4986766;28;20022;-74
2023/03/23 09:14:03;;;;;;;21.80;3.63;;;12.50;99.90;;;;;;5005776;28;20043;-74
2023/03/23 09:16:29;;;;;;;28.38;3.67;;;12.60;99.90;;;;;;4994598;28;20542;-74
2023/03/23 09:18:56;;;;;;;22.77;3.83;;;12.60;99.90;;;;;;4994951;28;20509;-74
2023/03/23 09:21:23;;;;;;;25.33;3.58;;;12.70;99.90;;;;;;4990622;28;20041;-74
2023/03/23 09:23:49;;;;;;;30.38;4.18;;;12.70;99.90;;;;;;4977968;28;20023;-74
2023/03/23 09:26:15;;;;;;;33.72;4.47;;;12.70;99.90;;;;;;4984705;28;20018;-74
2023/03/23 09:28:41;;;;;;;21.83;3.88;;;12.70;99.90;;;;;;4985663;28;20035;-74
2023/03/23 09:31:06;;;;;;;23.75;3.55;;;12.70;99.90;;;;;;4993173;28;20033;-74
2023/03/23 09:33:36;;;;;;;27.98;4.30;;;12.70;99.90;;;;;;4993853;28;20514;-74
2023/03/23 09:36:02;;;;;;;22.75;3.90;;;12.70;99.90;;;;;;5010463;28;20033;-73
2023/03/23 09:38:33;;;;;;;26.40;4.40;;;12.70;99.90;;;;;;4994205;28;20435;-73
2023/03/23 09:41:24;;;;;;;24.40;3.70;;;12.80;99.90;;;;;;4991856;28;20069;-73
2023/03/23 09:44:01;;;;;;;20.88;3.97;;;12.90;99.90;;;;;;4999474;28;20054;-73
2023/03/23 09:46:50;;;;;;;26.00;4.32;;;13.00;99.90;;;;;;4993040;28;20056;-73
2023/03/23 09:49:42;;;;;;;25.77;3.83;;;13.20;99.90;;;;;;4975363;28;20034;-74
2023/03/23 09:52:14;;;;;;;23.88;4.45;;;13.40;99.90;;;;;;4987943;28;20030;-74
2023/03/23 09:54:44;;;;;;;23.30;3.97;;;13.40;99.90;;;;;;5001792;28;20085;-74
2023/03/23 09:57:39;;;;;;;25.75;4.22;;;13.30;99.90;;;;;;4982150;28;20043;-74
2023/03/23 10:00:25;;;;;;;28.15;4.43;;;13.30;99.90;;;;;;4983307;28;20057;-74
2023/03/23 10:03:06;;;;;;;27.95;4.80;;;13.20;99.90;;;;;;4992299;28;20057;-74
2023/03/23 10:05:42;;;;;;;27.75;4.15;;;13.10;99.90;;;;;;4986639;28;20469;-74
2023/03/23 10:08:20;;;;;;;21.77;4.45;;;13.10;99.90;;;;;;4984749;28;20109;-74
2023/03/23 10:11:04;;;;;;;30.13;4.63;;;13.00;99.90;;;;;;4975597;28;20342;-74
2023/03/23 10:13:56;;;;;;;28.95;4.28;;;13.10;99.90;;;;;;4990118;28;20061;-73
2023/03/23 10:16:31;;;;;;;22.45;4.38;;;13.10;99.90;;;;;;4973886;28;20434;-74
2023/03/23 10:19:14;;;;;;;30.08;3.95;;;13.00;99.90;;;;;;4981349;28;20034;-74
2023/03/23 10:21:46;;;;;;;30.73;3.90;;;13.10;99.90;;;;;;4993608;28;20085;-74
2023/03/23 10:24:16;;;;;;;28.75;4.57;;;13.10;99.90;;;;;;4977072;28;20033;-74
2023/03/23 10:26:45;;;;;;;27.35;4.75;;;13.20;99.90;;;;;;4992462;28;20417;-74
2023/03/23 10:29:39;;;;;;;25.40;4.80;;;13.20;99.90;;;;;;4986893;28;20139;-75
2023/03/23 10:32:30;;;;;;;30.65;4.38;;;13.30;99.90;;;;;;4983435;28;20094;-74
2023/03/23 10:35:04;;;;;;;27.98;4.20;;;13.30;99.90;;;;;;4985452;28;20436;-74
2023/03/23 10:37:40;;;;;;;19.75;4.25;;;13.40;99.90;;;;;;4980597;28;20033;-75
2023/03/23 10:40:15;;;;;;;24.17;3.80;;;13.40;99.90;;;;;;4992322;28;20037;-74
2023/03/23 10:42:51;;;;;;;24.98;3.97;;;13.40;99.90;;;;;;4991231;28;20057;-73
2023/03/23 10:45:21;;;;;;;21.98;4.53;;;13.50;99.90;;;;;;4985517;28;20089;-74
2023/03/23 10:47:52;;;;;;;24.15;4.25;;;13.50;99.90;;;;;;4982200;28;20038;-74
2023/03/23 10:50:24;;;;;;;20.67;4.47;;;13.50;99.90;;;;;;4985387;28;20035;-73
2023/03/23 10:52:53;;;;;;;33.80;5.10;;;13.50;99.90;;;;;;4986952;28;20117;-73
2023/03/23 10:55:22;;;;;;;30.35;4.60;;;13.70;99.90;;;;;;4992623;28;20019;-74
2023/03/23 10:58:10;;;;;;;27.70;3.85;;;13.90;99.90;;;;;;4986718;28;20026;-73
2023/03/23 11:00:47;;;;;;;23.23;4.18;;;14.00;99.90;;;;;;4991348;28;20073;-74
2023/03/23 11:03:18;;;;;;;32.10;4.80;;;14.10;99.90;;;;;;4993251;28;20031;-74
2023/03/23 11:05:50;;;;;;;23.90;4.65;;;14.20;99.90;;;;;;4996593;28;20109;-74
2023/03/23 11:08:25;;;;;;;24.73;4.93;;;14.30;99.90;;;;;;4992802;28;20026;-74
2023/03/23 11:11:07;;;;;;;20.25;4.10;;;14.30;99.90;;;;;;4994818;28;20030;-75
2023/03/23 11:13:33;;;;;;;23.05;4.25;;;14.40;99.90;;;;;;4996302;28;20390;-74
2023/03/23 11:16:00;;;;;;;24.88;4.13;;;14.30;99.90;;;;;;4985647;28;20097;-74
2023/03/23 11:18:42;;;;;;;19.95;3.80;;;14.20;99.90;;;;;;4985627;28;20067;-75
2023/03/23 11:21:11;;;;;;;15.82;3.42;;;14.30;99.90;;;;;;4997295;28;20113;-74
2023/03/23 11:23:41;;;;;;;24.35;3.58;;;14.30;99.90;;;;;;5007199;28;20052;-75
2023/03/23 11:26:14;;;;;;;18.63;3.28;;;14.20;99.90;;;;;;4992105;28;20450;-75
2023/03/23 11:28:56;;;;;;;15.23;3.20;;;14.30;99.90;;;;;;4991006;28;20096;-75
2023/03/23 11:31:44;;;;;;;20.58;3.85;;;14.40;99.90;;;;;;4994513;28;20022;-74
2023/03/23 11:34:18;;;;;;;20.50;3.92;;;14.40;99.90;;;;;;4995788;28;20089;-74
2023/03/23 11:37:00;;;;;;;17.80;4.13;;;14.50;99.90;;;;;;4993212;28;20033;-74
2023/03/23 11:39:47;;;;;;;20.35;3.83;;;14.50;99.90;;;;;;4983650;28;20022;-74
2023/03/23 11:42:22;;;;;;;16.52;4.03;;;14.50;99.90;;;;;;4994236;28;20038;-74
2023/03/23 11:44:48;;;;;;;;;;;14.50;99.90;;;;;;4986205;28;20414;-74
2023/03/23 11:47:24;;;;;;;18.90;3.33;;;14.50;99.90;;;;;;4989446;28;19951;-74
2023/03/23 11:50:12;;;;;;;14.90;3.25;;;14.50;99.90;;;;;;4992148;28;20038;-73
2023/03/23 11:53:33;;;;;;;18.35;3.63;;;14.50;99.90;;;;;;4984722;28;20106;-74
2023/03/23 11:56:21;;;;;;;16.85;3.22;;;14.60;99.90;;;;;;4930678;28;20069;-74
2023/03/23 11:58:47;;;;;;;18.55;3.47;;;14.70;99.90;;;;;;4996283;28;20117;-74
2023/03/23 12:01:29;;;;;;;22.33;3.50;;;14.90;99.90;;;;;;4996384;28;20062;-75
2023/03/23 12:04:13;;;;;;;17.50;3.38;;;14.80;99.90;;;;;;4991314;28;20116;-73
2023/03/23 12:06:57;;;;;;;16.20;3.17;;;14.80;99.90;;;;;;4990347;28;20042;-73
2023/03/23 12:09:37;;;;;;;12.02;2.83;;;14.80;99.90;;;;;;4991059;28;20110;-73
2023/03/23 12:12:12;;;;;;;13.82;2.80;;;14.70;99.90;;;;;;4991204;28;20058;-73
2023/03/23 12:15:16;;;;;;;12.07;2.65;;;14.70;99.90;;;;;;4985675;28;20026;-73
2023/03/23 12:17:59;;;;;;;13.93;2.85;;;14.70;99.90;;;;;;4908395;29;20504;-74
2023/03/23 12:20:42;;;;;;;14.23;2.75;;;14.70;99.90;;;;;;4937048;29;20027;-74
2023/03/23 12:23:28;;;;;;;18.52;3.20;;;14.70;99.90;;;;;;4934123;29;20514;-74
2023/03/23 12:26:16;;;;;;;22.58;3.45;;;14.70;99.90;;;;;;4934322;29;20055;-74
2023/03/23 12:28:46;;;;;;;16.58;3.13;;;14.70;99.90;;;;;;4934220;29;20123;-74
2023/03/23 12:31:49;;;;;;;17.40;2.88;;;14.60;99.90;;;;;;4933204;29;20110;-74
2023/03/23 12:34:34;;;;;;;20.65;3.20;;;14.60;99.90;;;;;;4935307;29;20036;-73
2023/03/23 12:37:27;;;;;;;16.73;3.42;;;14.60;99.90;;;;;;4934773;29;20376;-73
2023/03/23 12:39:52;;;;;;;13.52;2.90;;;14.70;99.90;;;;;;4938975;29;20558;-74
2023/03/23 12:42:21;;;;;;;15.75;2.78;;;14.90;99.90;;;;;;4934933;29;20055;-74
2023/03/23 12:44:52;;;;;;;12.13;2.92;;;15.00;99.90;;;;;;4933221;29;20639;-74
2023/03/23 12:47:46;;;;;;;13.88;2.67;;;15.10;99.90;;;;;;4939816;29;20502;-74
2023/03/23 12:50:33;;;;;;;14.90;3.20;;;15.20;99.90;;;;;;4934344;29;20028;-74
2023/03/23 12:53:23;;;;;;;11.50;2.60;;;15.50;99.90;;;;;;4944200;28;20030;-74
2023/03/23 12:56:08;;;;;;;17.83;2.92;;;15.60;99.90;;;;;;4984370;28;20042;-74
2023/03/23 12:58:42;;;;;;;16.77;3.20;;;15.60;99.90;;;;;;4992061;28;20599;-74